Time;durP1;ratioP1;P1;durP2;ratioP2;P2;SDS_P1;SDS_P2;PMS_P1;PMS_P2;Temp;Humidity;BMP_temperature;BMP_pressure;BME280_temperature;BME280_humidity;BME280_pressure;Samples;Min_cycle;Max_cycle;Signal;HPM_P1;HPM_P2
2022/04/10 00:00:44;;;;;;;17.98;2.20;;;3.10;99.90;;;;;;5067403;28;20054;-80
2022/04/10 00:03:10;;;;;;;13.82;2.05;;;3.10;99.90;;;;;;5085360;28;20496;-80
2022/04/10 00:05:37;;;;;;;19.50;2.72;;;3.10;99.90;;;;;;5051070;28;20048;-80
2022/04/10 00:08:03;;;;;;;16.70;2.40;;;3.10;99.90;;;;;;5068525;28;20093;-80
2022/04/10 00:10:29;;;;;;;19.65;2.50;;;3.10;99.90;;;;;;5086065;28;20493;-80
2022/04/10 00:12:55;;;;;;;17.15;2.45;;;3.10;99.90;;;;;;5084974;28;20044;-80
2022/04/10 00:15:21;;;;;;;18.65;2.50;;;3.10;99.90;;;;;;5085240;28;20040;-81
2022/04/10 00:17:47;;;;;;;17.60;2.50;;;3.10;99.90;;;;;;5067471;28;20454;-80
2022/04/10 00:20:13;;;;;;;22.20;3.20;;;3.10;99.90;;;;;;5068993;28;20447;-80
2022/04/10 00:22:43;;;;;;;17.65;2.53;;;3.10;99.90;;;;;;5051820;28;20055;-80
2022/04/10 00:25:11;;;;;;;18.17;2.67;;;3.10;99.90;;;;;;5061281;28;20055;-80
2022/04/10 00:27:37;;;;;;;22.83;2.90;;;3.10;99.90;;;;;;5062834;28;20045;-80
2022/04/10 00:30:04;;;;;;;16.10;2.50;;;3.10;99.90;;;;;;5069670;28;20486;-80
2022/04/10 00:32:30;;;;;;;13.55;2.35;;;3.10;99.90;;;;;;5069710;28;20052;-80
2022/04/10 00:34:55;;;;;;;14.80;2.10;;;3.00;99.90;;;;;;5068488;28;20040;-80
2022/04/10 00:37:21;;;;;;;11.05;1.70;;;3.00;99.90;;;;;;5069333;28;20036;-80
2022/04/10 00:39:47;;;;;;;16.90;2.25;;;3.00;99.90;;;;;;5068304;28;20181;-80
2022/04/10 00:42:13;;;;;;;11.43;2.20;;;2.90;99.90;;;;;;5068317;28;20462;-80
2022/04/10 00:44:39;;;;;;;26.58;2.60;;;2.90;99.90;;;;;;5051597;28;20172;-80
2022/04/10 00:47:05;;;;;;;14.32;2.00;;;2.90;99.90;;;;;;5068936;28;20373;-80
2022/04/10 00:49:31;;;;;;;14.55;2.78;;;2.90;99.90;;;;;;5068829;28;20051;-80
2022/04/10 00:51:59;;;;;;;14.77;2.40;;;2.80;99.90;;;;;;5086118;28;20416;-80
2022/04/10 00:54:26;;;;;;;12.13;1.88;;;2.80;99.90;;;;;;5068223;28;20063;-80
2022/04/10 00:56:53;;;;;;;10.38;2.33;;;2.80;99.90;;;;;;5087946;28;20191;-79
2022/04/10 00:59:19;;;;;;;12.18;2.08;;;2.80;99.90;;;;;;5047939;28;20465;-80
2022/04/10 01:01:45;;;;;;;14.30;2.42;;;2.90;99.90;;;;;;5052543;28;20095;-80
2022/04/10 01:04:18;;;;;;;12.80;2.03;;;2.70;99.90;;;;;;5069096;28;20067;-80
2022/04/10 01:06:47;;;;;;;9.80;2.00;;;2.70;99.90;;;;;;5072267;28;20051;-80
2022/04/10 01:09:13;;;;;;;15.02;2.25;;;2.70;99.90;;;;;;5071122;28;20428;-79
2022/04/10 01:11:39;;;;;;;16.30;2.60;;;2.70;99.90;;;;;;5072286;28;20049;-80
2022/04/10 01:14:05;;;;;;;22.92;3.40;;;2.60;99.90;;;;;;5089385;28;20404;-80
2022/04/10 01:16:31;;;;;;;13.93;2.17;;;2.60;99.90;;;;;;5090325;28;20040;-80
2022/04/10 01:18:57;;;;;;;16.42;2.55;;;2.60;99.90;;;;;;5082882;28;20044;-80
2022/04/10 01:21:27;;;;;;;13.95;2.63;;;2.60;99.90;;;;;;5072877;28;20446;-80
2022/04/10 01:23:55;;;;;;;20.02;2.03;;;2.60;99.90;;;;;;5068992;28;20562;-79
2022/04/10 01:26:22;;;;;;;17.40;2.40;;;2.60;99.90;;;;;;5082840;28;20040;-80
2022/04/10 01:29:05;;;;;;;13.38;1.95;;;2.60;99.90;;;;;;5062389;28;20048;-79
2022/04/10 01:31:32;;;;;;;20.95;2.33;;;2.50;99.90;;;;;;5071806;28;20059;-79
2022/04/10 01:34:01;;;;;;;18.65;2.50;;;2.50;99.90;;;;;;5081339;28;20044;-79
2022/04/10 01:36:29;;;;;;;16.50;2.78;;;2.50;99.90;;;;;;5051370;28;20055;-79
2022/04/10 01:38:56;;;;;;;17.88;2.90;;;2.50;99.90;;;;;;5055878;28;20036;-80
2022/04/10 01:41:25;;;;;;;10.52;2.38;;;2.40;99.90;;;;;;5056636;28;20527;-79
2022/04/10 01:43:52;;;;;;;12.70;2.35;;;2.40;99.90;;;;;;5054188;28;20412;-79
2022/04/10 01:46:18;;;;;;;19.63;2.78;;;2.40;99.90;;;;;;5070784;28;20040;-79
2022/04/10 01:48:44;;;;;;;16.13;2.38;;;2.30;99.90;;;;;;5069224;28;20040;-78
2022/04/10 01:51:10;;;;;;;15.35;2.22;;;2.30;99.90;;;;;;5071112;28;20066;-80
2022/04/10 01:53:36;;;;;;;15.32;2.25;;;2.30;99.90;;;;;;5070987;28;20058;-80
2022/04/10 01:56:03;;;;;;;14.82;1.90;;;2.30;99.90;;;;;;5071223;28;20048;-79
2022/04/10 01:58:30;;;;;;;10.70;2.05;;;2.20;99.90;;;;;;5072916;28;20483;-69
2022/04/10 02:00:55;;;;;;;11.40;2.08;;;2.20;99.90;;;;;;5090485;28;20467;-69
2022/04/10 02:03:21;;;;;;;10.80;1.95;;;2.20;99.90;;;;;;5088334;28;20130;-69
2022/04/10 02:05:47;;;;;;;13.88;2.50;;;2.20;99.90;;;;;;5070978;28;20048;-69
2022/04/10 02:08:15;;;;;;;15.10;2.13;;;2.10;99.90;;;;;;5054032;28;20114;-70
2022/04/10 02:10:40;;;;;;;12.40;2.17;;;2.10;99.90;;;;;;5069515;28;20862;-69
2022/04/10 02:13:09;;;;;;;17.45;2.38;;;2.10;99.90;;;;;;5053980;28;20131;-69
2022/04/10 02:15:36;;;;;;;11.07;1.80;;;2.00;99.90;;;;;;5036937;28;20036;-69
2022/04/10 02:18:02;;;;;;;14.40;2.47;;;2.00;99.90;;;;;;5069456;28;20043;-69
2022/04/10 02:20:28;;;;;;;13.10;2.10;;;2.00;99.90;;;;;;5052982;28;20700;-69
2022/04/10 02:22:54;;;;;;;14.18;1.85;;;2.00;99.90;;;;;;5052848;28;20127;-69
2022/04/10 02:25:20;;;;;;;15.55;2.90;;;1.90;99.90;;;;;;5069771;28;20046;-69
2022/04/10 02:27:45;;;;;;;14.93;2.55;;;1.90;99.90;;;;;;5069663;28;20036;-69
2022/04/10 02:30:12;;;;;;;12.10;1.98;;;1.90;99.90;;;;;;5089090;28;20100;-69
2022/04/10 02:32:40;;;;;;;20.40;2.13;;;1.90;99.90;;;;;;5088436;28;20058;-68
2022/04/10 02:35:06;;;;;;;17.65;1.75;;;2.70;99.90;;;;;;5063053;28;20108;-69
2022/04/10 02:37:32;;;;;;;13.90;2.15;;;1.90;99.90;;;;;;5075077;28;20059;-69
2022/04/10 02:39:57;;;;;;;11.98;1.90;;;1.90;99.90;;;;;;5087166;28;20036;-69
2022/04/10 02:42:23;;;;;;;20.42;1.80;;;1.90;99.90;;;;;;5058669;28;20079;-69
2022/04/10 02:44:49;;;;;;;13.77;2.13;;;2.00;99.90;;;;;;5085333;28;20374;-69
2022/04/10 02:47:14;;;;;;;16.20;2.63;;;2.00;99.90;;;;;;5063967;28;20048;-69
2022/04/10 02:49:42;;;;;;;14.07;2.10;;;2.10;99.90;;;;;;5082415;28;20040;-69
2022/04/10 02:52:08;;;;;;;10.85;2.00;;;2.20;99.90;;;;;;5070126;28;20388;-69
2022/04/10 02:54:33;;;;;;;13.15;2.58;;;2.30;99.90;;;;;;5085841;28;20051;-69
2022/04/10 02:56:59;;;;;;;14.40;1.90;;;2.30;99.90;;;;;;5060902;28;20048;-69
2022/04/10 02:59:25;;;;;;;12.40;2.08;;;2.40;99.90;;;;;;5079440;28;20340;-69
2022/04/10 03:01:50;;;;;;;9.35;1.80;;;2.40;99.90;;;;;;5075336;28;20393;-69
2022/04/10 03:04:17;;;;;;;10.13;1.73;;;2.40;99.90;;;;;;5077349;28;20124;-69
2022/04/10 03:06:43;;;;;;;14.68;2.58;;;2.40;99.90;;;;;;5067795;28;20048;-69
2022/04/10 03:09:08;;;;;;;8.18;1.73;;;2.30;99.90;;;;;;5069130;28;20036;-68
2022/04/10 03:11:34;;;;;;;10.77;2.00;;;2.30;99.90;;;;;;5068588;28;20122;-68
2022/04/10 03:14:00;;;;;;;15.15;2.70;;;2.30;99.90;;;;;;5084649;28;20040;-69
2022/04/10 03:16:26;;;;;;;15.02;2.03;;;2.20;99.90;;;;;;5078291;28;20040;-69
2022/04/10 03:18:52;;;;;;;7.18;1.67;;;2.70;99.90;;;;;;5078770;28;20035;-69
2022/04/10 03:21:20;;;;;;;8.95;1.50;;;2.20;99.90;;;;;;5061764;28;20147;-69
2022/04/10 03:23:46;;;;;;;11.23;1.10;;;2.30;99.90;;;;;;5074155;28;20044;-69
2022/04/10 03:26:14;;;;;;;7.22;1.30;;;2.30;99.90;;;;;;5070086;28;20093;-69
2022/04/10 03:28:41;;;;;;;15.45;1.95;;;2.30;99.90;;;;;;5073502;28;20036;-70
2022/04/10 03:31:07;;;;;;;9.77;1.25;;;2.40;99.90;;;;;;5075510;28;20043;-69
2022/04/10 03:33:33;;;;;;;9.73;1.15;;;2.50;99.90;;;;;;5065539;28;21013;-69
2022/04/10 03:35:58;;;;;;;7.70;1.27;;;2.60;99.90;;;;;;5079708;28;20076;-71
2022/04/10 03:38:24;;;;;;;12.82;1.50;;;2.60;99.90;;;;;;5062156;28;20059;-70
2022/04/10 03:40:50;;;;;;;6.93;1.20;;;2.70;99.90;;;;;;5061983;28;20040;-69
2022/04/10 03:43:15;;;;;;;6.80;1.23;;;2.80;99.90;;;;;;5078853;28;20034;-69
2022/04/10 03:45:44;;;;;;;8.65;1.27;;;2.80;99.90;;;;;;5067468;28;20032;-69
2022/04/10 03:48:10;;;;;;;4.75;1.05;;;2.80;99.90;;;;;;5043052;28;20390;-69
2022/04/10 03:50:36;;;;;;;6.38;1.05;;;2.80;99.90;;;;;;5063687;28;20133;-69
2022/04/10 03:53:03;;;;;;;5.75;1.08;;;2.80;99.90;;;;;;5060824;28;20040;-70
2022/04/10 03:55:30;;;;;;;8.10;1.25;;;2.80;99.90;;;;;;5048878;28;20049;-70
2022/04/10 03:57:56;;;;;;;7.13;1.00;;;2.80;99.90;;;;;;5051095;28;20115;-70
2022/04/10 04:00:21;;;;;;;7.30;1.20;;;2.80;99.90;;;;;;5035367;28;21369;-70
2022/04/10 04:02:48;;;;;;;7.85;1.35;;;2.80;99.90;;;;;;5042169;28;20051;-69
2022/04/10 04:05:13;;;;;;;6.32;1.67;;;2.80;99.90;;;;;;5069179;28;20049;-70
2022/04/10 04:07:40;;;;;;;6.75;0.80;;;2.70;99.90;;;;;;5076517;28;20499;-70
2022/04/10 04:10:07;;;;;;;5.80;0.88;;;2.70;99.90;;;;;;5056129;28;20044;-70
2022/04/10 04:12:34;;;;;;;7.32;0.98;;;2.70;99.90;;;;;;5033854;28;20547;-70
2022/04/10 04:15:00;;;;;;;8.45;1.33;;;2.60;99.90;;;;;;5066391;28;20411;-70
2022/04/10 04:17:26;;;;;;;5.32;0.95;;;2.60;99.90;;;;;;5050822;28;20424;-70
2022/04/10 04:19:52;;;;;;;6.75;1.35;;;2.50;99.90;;;;;;5065413;28;20097;-68
2022/04/10 04:22:18;;;;;;;5.28;1.00;;;2.50;99.90;;;;;;5057568;28;20413;-69
2022/04/10 04:24:44;;;;;;;5.45;1.05;;;2.40;99.90;;;;;;5081721;28;20394;-70
2022/04/10 04:27:10;;;;;;;7.00;1.00;;;2.40;99.90;;;;;;5039076;28;20185;-69
2022/04/10 04:29:35;;;;;;;6.80;1.48;;;2.40;99.90;;;;;;5064535;28;20040;-69
2022/04/10 04:32:02;;;;;;;5.10;1.42;;;2.30;99.90;;;;;;5068832;28;20044;-69
2022/04/10 04:34:28;;;;;;;6.65;1.13;;;2.30;99.90;;;;;;5070632;28;20123;-69
2022/04/10 04:36:53;;;;;;;10.25;1.30;;;2.30;99.90;;;;;;5086530;28;20134;-69
2022/04/10 04:39:19;;;;;;;9.70;1.42;;;2.20;99.90;;;;;;5042524;28;20048;-69
2022/04/10 04:41:45;;;;;;;7.05;1.30;;;2.20;99.90;;;;;;5065993;28;20056;-69
2022/04/10 04:44:11;;;;;;;7.72;1.60;;;2.20;99.90;;;;;;5026692;28;20040;-69
2022/04/10 04:46:37;;;;;;;10.18;1.42;;;2.60;99.90;;;;;;5064915;28;20048;-69
2022/04/10 04:49:03;;;;;;;9.20;1.08;;;2.20;99.90;;;;;;5056521;28;20048;-69
2022/04/10 04:51:34;;;;;;;13.07;1.10;;;2.20;99.90;;;;;;5056939;28;20497;-69
2022/04/10 04:54:01;;;;;;;10.13;1.20;;;2.20;99.90;;;;;;5061042;28;20052;-69
2022/04/10 04:56:26;;;;;;;11.85;1.42;;;2.20;99.90;;;;;;5063034;28;20063;-69
2022/04/10 04:58:52;;;;;;;9.73;1.73;;;2.20;99.90;;;;;;5064012;28;20040;-71
2022/04/10 05:01:18;;;;;;;10.57;2.03;;;2.20;99.90;;;;;;5076328;28;20121;-69
2022/04/10 05:03:44;;;;;;;9.68;1.75;;;2.20;99.90;;;;;;5070264;28;20117;-69
2022/04/10 05:06:10;;;;;;;11.55;1.80;;;2.20;99.90;;;;;;5061851;28;20493;-69
2022/04/10 05:08:35;;;;;;;12.27;2.17;;;2.20;99.90;;;;;;5062412;28;20524;-69
2022/04/10 05:11:01;;;;;;;9.35;1.80;;;2.90;99.90;;;;;;5069711;28;20037;-69
2022/04/10 05:13:27;;;;;;;10.93;1.92;;;2.20;99.90;;;;;;5081593;28;20116;-69
2022/04/10 05:15:53;;;;;;;9.30;2.55;;;2.20;99.90;;;;;;5067046;28;20423;-69
2022/04/10 05:18:19;;;;;;;12.10;2.00;;;2.30;99.90;;;;;;5043798;28;20032;-69
2022/04/10 05:20:46;;;;;;;5.97;1.40;;;2.40;99.90;;;;;;5069645;28;20443;-69
2022/04/10 05:23:16;;;;;;;11.40;1.40;;;2.40;99.90;;;;;;5070044;28;20040;-70
2022/04/10 05:25:43;;;;;;;4.97;1.10;;;2.40;99.90;;;;;;5073068;28;20040;-69
2022/04/10 05:28:08;;;;;;;10.23;1.98;;;2.40;99.90;;;;;;5061798;28;20044;-69
2022/04/10 05:30:34;;;;;;;10.77;2.85;;;2.60;99.90;;;;;;5082383;28;20081;-69
2022/04/10 05:33:00;;;;;;;11.45;1.80;;;2.60;99.90;;;;;;5069907;28;20048;-69
2022/04/10 05:35:26;;;;;;;11.18;1.48;;;2.70;99.90;;;;;;5052641;28;20075;-69
2022/04/10 05:37:51;;;;;;;13.43;1.70;;;2.80;99.90;;;;;;5065976;28;20574;-69
2022/04/10 05:40:17;;;;;;;7.55;1.50;;;2.80;99.90;;;;;;5082489;28;20086;-69
2022/04/10 05:42:46;;;;;;;11.55;2.20;;;2.80;99.90;;;;;;5045801;28;20051;-70
2022/04/10 05:45:12;;;;;;;7.28;1.92;;;2.90;99.90;;;;;;5066113;28;20067;-69
2022/04/10 05:47:39;;;;;;;8.45;1.88;;;2.90;99.90;;;;;;5068077;28;20472;-69
2022/04/10 05:50:09;;;;;;;5.03;1.67;;;3.00;99.90;;;;;;5079374;28;20557;-70
2022/04/10 05:52:39;;;;;;;10.85;1.83;;;2.90;99.90;;;;;;5054149;28;20036;-70
2022/04/10 05:55:06;;;;;;;11.77;1.83;;;2.90;99.90;;;;;;5052519;28;20039;-69
2022/04/10 05:57:31;;;;;;;11.23;1.60;;;2.90;99.90;;;;;;5073100;28;20036;-69
2022/04/10 05:59:57;;;;;;;14.63;2.55;;;3.00;99.90;;;;;;5077438;28;20047;-69
2022/04/10 06:02:23;;;;;;;9.02;1.70;;;3.00;99.90;;;;;;5050330;28;20435;-69
2022/04/10 06:04:48;;;;;;;8.65;2.05;;;3.00;99.90;;;;;;5045045;28;20048;-70
2022/04/10 06:07:14;;;;;;;8.90;1.60;;;3.20;99.90;;;;;;5057107;28;20143;-69
2022/04/10 06:09:40;;;;;;;13.38;1.60;;;3.00;99.90;;;;;;5077647;28;20044;-69
2022/04/10 06:12:06;;;;;;;8.02;1.50;;;3.00;99.90;;;;;;5054777;28;20056;-70
2022/04/10 06:14:32;;;;;;;11.02;1.63;;;3.00;99.90;;;;;;5056514;28;20414;-69
2022/04/10 06:16:57;;;;;;;12.43;2.25;;;3.10;99.90;;;;;;5064897;28;20047;-69
2022/04/10 06:19:23;;;;;;;11.68;1.50;;;3.90;99.90;;;;;;5069518;28;20043;-69
2022/04/10 06:21:49;;;;;;;7.43;1.40;;;4.30;99.90;;;;;;5082270;28;20076;-69
2022/04/10 06:24:14;;;;;;;8.23;1.58;;;5.90;99.90;;;;;;5049666;28;20068;-69
2022/04/10 06:26:41;;;;;;;7.57;1.30;;;6.80;99.90;;;;;;5079544;28;20040;-69
2022/04/10 06:29:07;;;;;;;14.88;1.80;;;6.40;99.90;;;;;;5068135;28;20561;-69
2022/04/10 06:31:32;;;;;;;9.50;1.60;;;6.00;99.90;;;;;;5086542;28;20044;-69
2022/04/10 06:34:01;;;;;;;9.90;1.48;;;5.70;99.90;;;;;;5075057;28;20459;-68
2022/04/10 06:36:26;;;;;;;8.15;1.17;;;5.30;99.90;;;;;;5074385;28;20093;-69
2022/04/10 06:38:52;;;;;;;10.63;1.42;;;4.90;99.90;;;;;;5082018;28;20044;-70
2022/04/10 06:41:18;;;;;;;9.38;1.58;;;4.70;99.90;;;;;;5060991;28;21063;-70
2022/04/10 06:43:44;;;;;;;12.05;1.70;;;4.50;99.90;;;;;;5044706;28;20068;-69
2022/04/10 06:46:10;;;;;;;11.38;1.70;;;4.50;99.90;;;;;;5060685;28;20087;-69
2022/04/10 06:48:36;;;;;;;7.15;1.10;;;4.40;99.90;;;;;;5066872;28;20123;-69
2022/04/10 06:51:03;;;;;;;6.65;1.35;;;4.40;99.90;;;;;;5061382;28;20482;-69
2022/04/10 06:53:28;;;;;;;12.85;1.52;;;4.90;99.90;;;;;;5082288;28;20052;-69
2022/04/10 06:55:54;;;;;;;11.35;1.50;;;5.80;99.90;;;;;;5073918;28;20114;-69
2022/04/10 06:58:22;;;;;;;9.73;1.58;;;7.20;99.90;;;;;;5039580;28;20052;-69
2022/04/10 07:00:54;;;;;;;10.18;2.40;;;8.50;99.90;;;;;;5062213;28;20556;-69
2022/04/10 07:03:19;;;;;;;;;;;9.10;99.90;;;;;;5048537;28;20547;-69
2022/04/10 07:05:45;;;;;;;7.65;1.33;;;10.20;99.90;;;;;;5079410;28;19928;-69
2022/04/10 07:08:11;;;;;;;9.40;1.65;;;10.10;99.90;;;;;;5082953;28;20040;-69
2022/04/10 07:10:37;;;;;;;5.53;1.17;;;9.00;99.90;;;;;;5078977;28;20125;-69
2022/04/10 07:13:03;;;;;;;6.05;1.10;;;8.40;99.90;;;;;;5057674;28;20044;-69
2022/04/10 07:15:30;;;;;;;7.18;1.48;;;8.30;99.90;;;;;;5048192;28;20040;-69
2022/04/10 07:17:56;;;;;;;7.47;1.58;;;7.60;99.90;;;;;;5057765;28;20119;-69
2022/04/10 07:20:24;;;;;;;4.95;1.25;;;7.10;99.90;;;;;;5066626;28;20049;-69
2022/04/10 07:25:33;;;;;;;14.35;1.90;;;6.50;99.90;;;;;;5073366;28;20044;-70
2022/04/10 07:28:00;;;;;;;9.70;1.52;;;6.30;99.90;;;;;;5044757;28;20485;-69
2022/04/10 07:30:25;;;;;;;13.43;1.63;;;6.20;99.90;;;;;;5042949;28;20052;-69
2022/04/10 07:32:56;;;;;;;6.25;1.20;;;6.30;99.90;;;;;;5031868;28;20048;-68
2022/04/10 07:35:22;;;;;;;8.43;1.13;;;6.60;99.90;;;;;;5076262;28;20044;-68
2022/04/10 07:37:49;;;;;;;6.78;1.20;;;6.90;99.90;;;;;;5042446;28;20344;-69
2022/04/10 07:40:15;;;;;;;5.25;1.23;;;7.20;99.90;;;;;;5062719;28;20047;-69
2022/04/10 07:42:43;;;;;;;9.98;1.42;;;7.50;99.90;;;;;;5058194;28;20048;-68
2022/04/10 07:45:10;;;;;;;8.02;1.15;;;7.80;99.90;;;;;;5082615;28;20094;-70
2022/04/10 07:47:36;;;;;;;11.68;1.77;;;8.00;99.90;;;;;;5061778;28;20044;-70
2022/04/10 07:50:03;;;;;;;6.13;1.10;;;8.20;99.90;;;;;;5054702;28;20040;-70
2022/04/10 07:52:29;;;;;;;6.57;1.42;;;8.50;99.90;;;;;;5063455;28;20040;-70
2022/04/10 07:54:54;;;;;;;7.53;1.40;;;8.90;99.90;;;;;;5055835;28;20530;-70
2022/04/10 07:57:20;;;;;;;11.50;1.90;;;9.10;99.90;;;;;;5057507;28;20040;-69
2022/04/10 07:59:46;;;;;;;10.15;1.40;;;9.20;99.90;;;;;;5059050;28;20089;-70
2022/04/10 08:02:12;;;;;;;11.10;1.45;;;9.20;99.90;;;;;;5061475;28;20040;-70
2022/04/10 08:04:39;;;;;;;12.88;2.20;;;9.30;99.90;;;;;;5061893;28;20156;-70
2022/04/10 08:07:05;;;;;;;10.60;1.88;;;9.30;99.90;;;;;;5061906;28;20047;-70
2022/04/10 08:09:32;;;;;;;8.80;1.33;;;9.40;99.90;;;;;;5066015;28;20461;-71
2022/04/10 08:11:57;;;;;;;9.88;2.10;;;9.60;99.90;;;;;;5042419;28;20040;-70
2022/04/10 08:14:23;;;;;;;15.70;1.65;;;9.60;99.90;;;;;;5061361;28;20121;-71
2022/04/10 08:16:49;;;;;;;9.02;1.92;;;9.70;99.90;;;;;;5061460;28;20044;-71
2022/04/10 08:19:15;;;;;;;21.58;1.83;;;9.70;99.90;;;;;;5060646;28;20048;-71
2022/04/10 08:21:40;;;;;;;13.70;2.10;;;9.70;99.90;;;;;;5061786;28;20032;-70
2022/04/10 08:24:09;;;;;;;15.20;2.08;;;9.60;99.90;;;;;;5059327;28;20501;-70
2022/04/10 08:26:35;;;;;;;13.02;1.60;;;9.30;99.90;;;;;;5060732;28;20052;-71
2022/04/10 08:29:00;;;;;;;11.05;1.30;;;9.10;99.90;;;;;;5062644;28;20059;-70
2022/04/10 08:31:28;;;;;;;12.10;1.85;;;9.00;99.90;;;;;;5066971;28;20041;-71
2022/04/10 08:33:54;;;;;;;10.23;1.45;;;9.00;99.90;;;;;;5064711;28;20459;-70
2022/04/10 08:36:20;;;;;;;13.70;1.83;;;9.00;99.90;;;;;;5065013;28;20633;-70
2022/04/10 08:38:47;;;;;;;11.48;1.60;;;8.90;99.90;;;;;;5064923;28;20519;-71
2022/04/10 08:41:15;;;;;;;10.45;1.50;;;8.80;99.90;;;;;;5057211;28;20044;-71
2022/04/10 08:43:41;;;;;;;10.52;2.05;;;8.80;99.90;;;;;;5045135;28;20560;-70
2022/04/10 08:46:07;;;;;;;10.68;1.65;;;9.00;99.90;;;;;;5066014;28;20040;-70
2022/04/10 08:48:35;;;;;;;13.13;2.55;;;9.40;99.90;;;;;;5058818;28;20045;-71
2022/04/10 08:51:02;;;;;;;7.70;1.40;;;9.60;99.90;;;;;;5051757;28;20563;-71
2022/04/10 08:53:32;;;;;;;8.75;1.45;;;9.50;99.90;;;;;;5050262;28;20040;-69
2022/04/10 08:55:57;;;;;;;10.57;1.83;;;9.60;99.90;;;;;;5068766;28;20727;-71
2022/04/10 08:58:23;;;;;;;9.50;1.60;;;9.50;99.90;;;;;;5054180;28;20132;-71
2022/04/10 09:00:49;;;;;;;7.28;1.20;;;9.30;99.90;;;;;;5069902;28;20092;-71
2022/04/10 09:03:15;;;;;;;8.30;1.10;;;9.10;99.90;;;;;;5066509;28;20131;-71
2022/04/10 09:05:40;;;;;;;10.73;1.25;;;9.50;99.90;;;;;;5054410;28;20370;-71
2022/04/10 09:08:16;;;;;;;6.32;1.20;;;9.40;99.90;;;;;;5051739;28;20044;-70
2022/04/10 09:11:08;;;;;;;10.77;1.60;;;9.90;99.90;;;;;;5051772;28;20153;-71
2022/04/10 09:13:47;;;;;;;5.97;1.02;;;9.90;99.90;;;;;;5034998;28;20044;-70
2022/04/10 09:16:18;;;;;;;9.88;1.52;;;10.20;99.90;;;;;;5040768;28;20036;-70
2022/04/10 09:18:49;;;;;;;7.43;1.15;;;10.40;99.90;;;;;;5056291;28;20109;-70
2022/04/10 09:21:15;;;;;;;9.27;1.60;;;10.40;99.90;;;;;;5053512;28;20051;-71
2022/04/10 09:23:44;;;;;;;7.85;1.40;;;10.70;99.90;;;;;;5053299;28;20655;-70
2022/04/10 09:26:10;;;;;;;7.60;1.35;;;11.40;99.90;;;;;;5037874;28;20044;-70
2022/04/10 09:28:47;;;;;;;12.57;2.00;;;11.20;99.90;;;;;;5063753;28;20063;-70
2022/04/10 09:31:30;;;;;;;8.82;1.75;;;11.30;99.90;;;;;;5053684;28;20700;-70
2022/04/10 09:34:01;;;;;;;15.93;2.22;;;11.30;99.90;;;;;;5071793;28;20516;-70
2022/04/10 09:36:44;;;;;;;10.77;1.80;;;11.10;99.90;;;;;;5058221;28;20105;-70
2022/04/10 09:39:15;;;;;;;15.45;1.80;;;10.70;99.90;;;;;;5061226;28;20322;-71
2022/04/10 09:41:45;;;;;;;8.07;1.42;;;10.60;99.90;;;;;;5059272;28;20064;-70
2022/04/10 09:44:20;;;;;;;7.65;1.40;;;10.30;99.90;;;;;;5070815;28;20381;-71
2022/04/10 09:47:07;;;;;;;17.05;2.03;;;10.00;99.90;;;;;;5079074;28;20573;-71
2022/04/10 09:49:35;;;;;;;10.25;1.98;;;9.60;99.90;;;;;;5060906;28;20127;-71
2022/04/10 09:52:07;;;;;;;11.40;1.60;;;9.60;99.90;;;;;;5073610;28;20074;-71
2022/04/10 09:54:40;;;;;;;12.48;1.98;;;9.70;99.90;;;;;;5078940;28;20052;-71
2022/04/10 09:57:12;;;;;;;9.43;1.40;;;9.60;99.90;;;;;;5067474;28;20056;-68
2022/04/10 09:59:40;;;;;;;;;;;9.50;99.90;;;;;;5075786;28;20083;-71
2022/04/10 10:02:06;;;;;;;7.57;1.60;;;9.50;99.90;;;;;;5039652;28;20366;-71
2022/04/10 10:04:35;;;;;;;15.55;1.58;;;9.50;99.90;;;;;;5045104;28;20181;-72
2022/04/10 10:07:07;;;;;;;10.98;2.08;;;9.50;99.90;;;;;;5041569;28;20048;-71
2022/04/10 10:09:33;;;;;;;10.85;1.55;;;9.40;99.90;;;;;;5068152;28;20036;-71
2022/04/10 10:12:04;;;;;;;9.10;1.67;;;9.40;99.90;;;;;;5041722;28;20055;-71
2022/04/10 10:14:31;;;;;;;11.95;2.28;;;9.70;99.90;;;;;;5060134;28;20051;-71
2022/04/10 10:16:59;;;;;;;10.35;1.70;;;10.00;99.90;;;;;;5065842;28;20512;-72
2022/04/10 10:19:26;;;;;;;11.30;2.28;;;10.00;99.90;;;;;;5044179;28;20105;-71
2022/04/10 10:21:54;;;;;;;10.93;1.80;;;10.00;99.90;;;;;;5056264;28;20055;-71
2022/04/10 10:24:23;;;;;;;7.57;1.23;;;10.10;99.90;;;;;;5067996;28;20032;-71
2022/04/10 10:27:13;;;;;;;8.43;1.30;;;10.30;99.90;;;;;;5057645;28;20461;-72
2022/04/10 10:29:50;;;;;;;7.55;1.50;;;10.50;99.90;;;;;;5073655;28;20040;-71
2022/04/10 10:32:41;;;;;;;11.82;2.00;;;10.50;99.90;;;;;;5058015;28;20040;-70
2022/04/10 10:35:28;;;;;;;8.15;1.50;;;10.60;99.90;;;;;;5041963;28;20029;-71
2022/04/10 10:37:54;;;;;;;10.90;1.92;;;10.80;99.90;;;;;;5058827;28;20078;-72
2022/04/10 10:40:21;;;;;;;12.00;1.80;;;10.80;99.90;;;;;;5049749;28;20035;-71
2022/04/10 10:42:50;;;;;;;12.38;2.20;;;10.60;99.90;;;;;;5047960;28;20423;-71
2022/04/10 10:45:45;;;;;;;14.40;1.73;;;10.10;99.90;;;;;;5061315;28;20488;-71
2022/04/10 10:48:32;;;;;;;8.43;1.65;;;9.70;99.90;;;;;;5062317;28;20048;-70
2022/04/10 10:51:10;;;;;;;11.48;1.25;;;9.80;99.90;;;;;;5085125;28;20113;-70
2022/04/10 10:53:52;;;;;;;12.18;1.83;;;10.30;99.90;;;;;;5068108;28;20083;-71
2022/04/10 10:56:17;;;;;;;;;;;10.30;99.90;;;;;;5078926;28;20167;-71
2022/04/10 10:58:44;;;;;;;7.30;1.40;;;10.70;99.90;;;;;;5047425;28;20003;-71
2022/04/10 11:01:26;;;;;;;9.88;1.85;;;11.00;99.90;;;;;;5062484;28;20040;-71
2022/04/10 11:04:22;;;;;;;7.05;1.58;;;10.70;99.90;;;;;;5086088;28;20042;-70
2022/04/10 11:06:48;;;;;;;14.75;1.63;;;10.60;99.90;;;;;;5063783;28;20058;-71
2022/04/10 11:09:28;;;;;;;11.38;2.20;;;10.70;99.90;;;;;;5036888;28;20040;-69
2022/04/10 11:11:56;;;;;;;10.40;1.83;;;10.50;99.90;;;;;;5060087;28;20084;-71
2022/04/10 11:14:52;;;;;;;8.23;1.35;;;10.40;99.90;;;;;;5067395;28;20105;-70
2022/04/10 11:17:21;;;;;;;13.90;1.50;;;10.60;99.90;;;;;;5067516;28;20077;-70
2022/04/10 11:19:57;;;;;;;4.57;1.15;;;10.60;99.90;;;;;;5066176;28;20036;-70
2022/04/10 11:22:25;;;;;;;11.73;1.10;;;10.80;99.90;;;;;;5065564;28;20039;-70
2022/04/10 11:24:57;;;;;;;7.43;1.48;;;11.00;99.90;;;;;;5049800;28;20493;-70
2022/04/10 11:27:43;;;;;;;12.70;1.70;;;11.10;99.90;;;;;;5065189;28;20039;-70
2022/04/10 11:30:13;;;;;;;6.47;1.15;;;11.20;99.90;;;;;;5082923;28;20090;-70
2022/04/10 11:32:44;;;;;;;5.75;1.05;;;11.10;99.90;;;;;;5058847;28;20526;-70
2022/04/10 11:35:20;;;;;;;;;;;10.80;99.90;;;;;;5060783;28;20092;-70
2022/04/10 11:37:50;;;;;;;9.02;1.35;;;10.60;99.90;;;;;;5065224;28;19924;-69
2022/04/10 11:40:40;;;;;;;8.82;1.35;;;10.70;99.90;;;;;;5063585;28;20040;-69
2022/04/10 11:43:08;;;;;;;12.10;1.50;;;11.00;99.90;;;;;;5047661;28;20118;-69
2022/04/10 11:45:34;;;;;;;6.65;1.40;;;10.90;99.90;;;;;;5083729;28;20051;-69
2022/04/10 11:48:05;;;;;;;7.70;1.17;;;10.80;99.90;;;;;;5066035;28;20040;-70
2022/04/10 11:50:32;;;;;;;9.05;1.55;;;10.80;99.90;;;;;;5082695;28;20408;-70
2022/04/10 11:53:16;;;;;;;9.48;1.40;;;11.00;99.90;;;;;;5076111;28;20045;-69
2022/04/10 11:55:46;;;;;;;15.05;1.38;;;11.30;99.90;;;;;;5080608;28;20417;-70
2022/04/10 11:58:15;;;;;;;7.88;1.05;;;11.50;99.90;;;;;;5083014;28;20080;-70
2022/04/10 12:00:52;;;;;;;6.85;1.40;;;11.40;99.90;;;;;;5046545;28;20040;-72
2022/04/10 12:03:20;;;;;;;4.75;1.15;;;11.20;99.90;;;;;;5058319;28;20482;-71
2022/04/10 12:05:47;;;;;;;9.52;1.67;;;11.00;99.90;;;;;;5066740;28;20467;-70
2022/04/10 12:08:16;;;;;;;9.95;1.13;;;11.00;99.90;;;;;;5066388;28;20369;-71
2022/04/10 12:10:51;;;;;;;10.63;1.48;;;11.20;99.90;;;;;;5065692;28;20046;-70
2022/04/10 12:13:16;;;;;;;13.25;1.60;;;11.40;99.90;;;;;;5083884;28;20055;-70
2022/04/10 12:15:45;;;;;;;7.13;1.65;;;11.50;99.90;;;;;;5065845;28;20044;-71
2022/04/10 12:18:13;;;;;;;8.77;1.27;;;11.80;99.40;;;;;;5063685;28;20044;-70
2022/04/10 12:20:43;;;;;;;7.10;1.13;;;11.50;99.90;;;;;;5062570;28;20099;-70
2022/04/10 12:23:26;;;;;;;8.13;1.77;;;11.30;99.90;;;;;;5061891;28;20420;-70
2022/04/10 12:25:54;;;;;;;10.63;1.30;;;11.10;99.90;;;;;;5045836;28;20385;-71
2022/04/10 12:28:21;;;;;;;7.35;1.30;;;11.10;99.90;;;;;;5065393;28;20404;-70
2022/04/10 12:30:48;;;;;;;10.93;1.40;;;11.40;99.90;;;;;;5085429;28;20054;-70
2022/04/10 12:33:14;;;;;;;9.90;1.15;;;11.30;99.90;;;;;;5063952;28;20040;-71
2022/04/10 12:35:43;;;;;;;12.40;1.20;;;11.20;99.90;;;;;;5047446;28;20496;-71
2022/04/10 12:38:11;;;;;;;6.53;1.30;;;11.10;99.90;;;;;;5063860;28;20087;-70
2022/04/10 12:40:37;;;;;;;5.95;0.90;;;11.20;99.90;;;;;;5064735;28;20116;-70
2022/04/10 12:43:05;;;;;;;4.90;0.88;;;11.40;99.90;;;;;;5062799;28;20158;-71
2022/04/10 12:45:36;;;;;;;6.10;1.00;;;11.60;99.90;;;;;;5057719;28;20469;-70
2022/04/10 12:48:18;;;;;;;;;;;11.60;98.40;;;;;;5052871;28;20064;-71
2022/04/10 12:50:43;;;;;;;8.63;1.58;;;11.30;99.00;;;;;;5076150;28;20388;-71
2022/04/10 12:53:15;;;;;;;4.57;0.73;;;10.70;98.80;;;;;;5053480;28;20473;-70
2022/04/10 12:55:41;;;;;;;7.35;0.90;;;10.90;99.90;;;;;;5085466;28;20048;-68
2022/04/10 12:58:07;;;;;;;7.65;1.10;;;10.90;99.90;;;;;;5078763;28;20444;-68